Winfield, Georgia
Current Conditions -  °F | °C
As of 8:15 PM on Saturday 22 Nov 2014 (Local Time) from KHQU Reporting Station
Scattered Clouds Scattered Clouds  
Wind Chill: 55°   Ceiling: Unl
Heat Index: 55°   Visibility: 10mi
Dew Point: 38°   Wind: 3mph
Humidity: 53%   Direction: 90°E
Pressure: 30.34"   Gusts: NA
Location:  33.5142°N, 82.516°W
Report Text: KHQU 230115Z AUTO 09003KT 10SM SCT120 13/03 A3034 RMK AO1 T01260032
Loading
Personal Weather Stations






























Interactive Weather Map New forecast layout! Learn more

10-Day Weather Forecast

Advertisements
Track Severe Weather on mobile